createdAt,value
2019-01-16T00:00:18.001Z,93.7
2019-01-16T00:00:44.087Z,93.89
2019-01-16T00:01:10.218Z,93.89
2019-01-16T00:01:36.356Z,93.7
2019-01-16T00:02:02.466Z,93.89
2019-01-16T00:02:28.580Z,93.98
2019-01-16T00:02:55.037Z,94.46
2019-01-16T00:03:21.093Z,94.18
2019-01-16T00:03:47.211Z,94.37
2019-01-16T00:04:13.321Z,94.18
2019-01-16T00:04:39.431Z,94.56
2019-01-16T00:05:05.571Z,94.74
2019-01-16T00:05:31.667Z,94.65
2019-01-16T00:05:57.776Z,94.27
2019-01-16T00:06:23.875Z,94.27
2019-01-16T00:06:50.081Z,94.37
2019-01-16T00:07:16.319Z,94.37
2019-01-16T00:07:42.381Z,94.37
2019-01-16T00:08:08.485Z,94.37
2019-01-16T00:08:34.615Z,94.37
2019-01-16T00:09:00.794Z,93.7
2019-01-16T00:09:26.912Z,93.89
2019-01-16T00:09:53.020Z,93.79
2019-01-16T00:10:19.126Z,93.6
2019-01-16T00:10:45.278Z,93.7
2019-01-16T00:11:11.397Z,93.6
2019-01-16T00:11:37.497Z,94.08
2019-01-16T00:12:03.602Z,93.98
2019-01-16T00:12:29.773Z,93.89
2019-01-16T00:12:55.928Z,93.98
2019-01-16T00:13:22.045Z,94.08
2019-01-16T00:13:48.181Z,94.08
2019-01-16T00:14:14.283Z,94.08
2019-01-16T00:14:40.407Z,93.98
2019-01-16T00:15:06.561Z,94.08
2019-01-16T00:15:32.667Z,93.98
2019-01-16T00:15:58.772Z,93.6
2019-01-16T00:16:24.886Z,93.7
2019-01-16T00:16:51.038Z,93.79
2019-01-16T00:17:17.149Z,93.7
2019-01-16T00:17:43.256Z,93.89
2019-01-16T00:18:09.395Z,93.7
2019-01-16T00:18:36.492Z,93.79
2019-01-16T00:19:02.620Z,93.79
2019-01-16T00:19:28.730Z,93.7
2019-01-16T00:19:54.839Z,93.7
2019-01-16T00:20:21.021Z,93.6
2019-01-16T00:20:47.128Z,94.08
2019-01-16T00:21:13.266Z,93.6
2019-01-16T00:21:39.395Z,93.7
2019-01-16T00:22:05.505Z,93.89
2019-01-16T00:22:31.609Z,93.7
2019-01-16T00:22:57.718Z,93.89
2019-01-16T00:23:23.861Z,93.98
2019-01-16T00:23:49.979Z,93.7
2019-01-16T00:24:16.085Z,93.89
2019-01-16T00:24:42.197Z,93.51
2019-01-16T00:25:08.351Z,93.79
2019-01-16T00:25:34.463Z,93.6
2019-01-16T00:26:00.588Z,93.89
2019-01-16T00:26:26.695Z,93.89
2019-01-16T00:26:53.025Z,93.79
2019-01-16T00:27:19.152Z,93.89
2019-01-16T00:27:45.260Z,93.79
2019-01-16T00:28:11.360Z,93.98
2019-01-16T00:28:37.570Z,93.89
2019-01-16T00:29:03.687Z,93.89
2019-01-16T00:29:29.956Z,93.89
2019-01-16T00:29:56.062Z,93.89
2019-01-16T00:30:22.189Z,93.89
2019-01-16T00:30:48.385Z,93.89
2019-01-16T00:31:14.483Z,93.89
2019-01-16T00:31:40.594Z,93.89
2019-01-16T00:32:06.705Z,93.89
2019-01-16T00:32:33.039Z,93.98
2019-01-16T00:32:59.180Z,94.46
2019-01-16T00:33:25.346Z,94.27
2019-01-16T00:33:51.467Z,93.98
2019-01-16T00:34:17.575Z,94.37
2019-01-16T00:34:43.705Z,94.37
2019-01-16T00:35:09.817Z,93.89
2019-01-16T00:35:35.931Z,94.27
2019-01-16T00:36:02.031Z,94.74
2019-01-16T00:36:28.149Z,94.84
2019-01-16T00:36:54.274Z,94.65
2019-01-16T00:37:20.377Z,94.56
2019-01-16T00:37:46.486Z,94.74
2019-01-16T00:38:12.614Z,94.65
2019-01-16T00:38:38.896Z,94.65
2019-01-16T00:39:04.954Z,94.84
2019-01-16T00:39:31.057Z,94.65
2019-01-16T00:39:57.196Z,94.74
2019-01-16T00:40:23.326Z,94.74
2019-01-16T00:40:49.454Z,94.84
2019-01-16T00:41:15.554Z,94.74
2019-01-16T00:41:41.662Z,94.74
2019-01-16T00:42:07.865Z,94.74
2019-01-16T00:42:34.074Z,95.12
2019-01-16T00:43:00.185Z,94.93
2019-01-16T00:43:26.293Z,95.12
2019-01-16T00:43:52.424Z,94.74
2019-01-16T00:44:18.714Z,94.93
2019-01-16T00:44:44.797Z,94.93
2019-01-16T00:45:10.955Z,94.84
2019-01-16T00:45:37.069Z,94.84
2019-01-16T00:46:03.205Z,94.93
2019-01-16T00:46:29.520Z,95.32
2019-01-16T00:46:55.632Z,95.22
2019-01-16T00:47:21.763Z,95.22
2019-01-16T00:47:48.129Z,95.12
2019-01-16T00:48:14.269Z,95.22
2019-01-16T00:48:41.421Z,95.41
2019-01-16T00:49:07.843Z,95.12
2019-01-16T00:49:34.221Z,95.32
2019-01-16T00:50:00.415Z,95.32
2019-01-16T00:50:26.463Z,95.12
2019-01-16T00:50:52.586Z,95.12
2019-01-16T00:51:18.711Z,94.84
2019-01-16T00:51:44.815Z,95.51
2019-01-16T00:52:10.927Z,95.41
2019-01-16T00:52:37.054Z,95.41
2019-01-16T00:53:03.168Z,95.41
2019-01-16T00:53:29.304Z,95.32
2019-01-16T00:53:55.440Z,95.41
2019-01-16T00:54:21.546Z,95.51
2019-01-16T00:54:47.666Z,95.22
2019-01-16T00:55:13.781Z,95.32
2019-01-16T00:55:39.926Z,95.32
2019-01-16T00:56:06.035Z,95.32
2019-01-16T00:56:32.138Z,95.12
2019-01-16T00:56:58.249Z,95.12
2019-01-16T00:57:24.357Z,95.89
2019-01-16T00:57:50.464Z,95.41
2019-01-16T00:58:16.596Z,95.51
2019-01-16T00:58:42.728Z,95.51
2019-01-16T00:59:08.904Z,96.46
2019-01-16T00:59:35.087Z,96.46
2019-01-16T01:00:01.216Z,95.79
2019-01-16T01:00:27.359Z,95.51
2019-01-16T01:00:53.475Z,96.46
2019-01-16T01:01:19.624Z,95.79
2019-01-16T01:01:45.817Z,95.89
2019-01-16T01:02:11.966Z,96.46
2019-01-16T01:02:38.068Z,96.17
2019-01-16T01:03:04.176Z,96.36
2019-01-16T01:03:30.285Z,96.08
2019-01-16T01:03:56.385Z,96.26
2019-01-16T01:04:22.495Z,96.26
2019-01-16T01:04:48.596Z,96.46
2019-01-16T01:05:14.704Z,96.26
2019-01-16T01:05:40.802Z,96.26
2019-01-16T01:06:06.910Z,96.36
2019-01-16T01:06:33.014Z,96.26
2019-01-16T01:06:59.132Z,96.26
2019-01-16T01:07:25.232Z,96.36
2019-01-16T01:07:51.339Z,95.41
2019-01-16T01:08:17.467Z,96.08
2019-01-16T01:08:43.574Z,95.98
2019-01-16T01:09:09.710Z,96.36
2019-01-16T01:09:35.815Z,96.55
2019-01-16T01:10:01.921Z,95.89
2019-01-16T01:10:28.029Z,95.98
2019-01-16T01:10:54.143Z,95.51
2019-01-16T01:11:20.245Z,95.41
2019-01-16T01:11:46.351Z,95.6
2019-01-16T01:12:12.455Z,95.98
2019-01-16T01:12:38.585Z,95.12
2019-01-16T01:13:04.687Z,95.32
2019-01-16T01:13:30.822Z,95.32
2019-01-16T01:13:56.925Z,95.79
2019-01-16T01:14:23.039Z,95.6
2019-01-16T01:14:49.144Z,95.41
2019-01-16T01:15:15.255Z,95.51
2019-01-16T01:15:41.366Z,95.41
2019-01-16T01:16:07.497Z,95.6
2019-01-16T01:16:33.595Z,95.51
2019-01-16T01:16:59.703Z,95.41
2019-01-16T01:17:25.806Z,95.41
2019-01-16T01:17:51.934Z,95.89
2019-01-16T01:18:18.032Z,95.7
2019-01-16T01:18:46.453Z,95.51
2019-01-16T01:19:12.593Z,95.51
2019-01-16T01:19:38.734Z,95.98
2019-01-16T01:20:04.868Z,95.7
2019-01-16T01:20:31.022Z,95.7
2019-01-16T01:20:57.133Z,95.7
2019-01-16T01:21:23.233Z,95.6
2019-01-16T01:21:49.343Z,95.41
2019-01-16T01:22:15.446Z,95.41
2019-01-16T01:22:41.558Z,95.51
2019-01-16T01:23:07.660Z,95.6
2019-01-16T01:23:33.767Z,95.51
2019-01-16T01:23:59.870Z,96.08
2019-01-16T01:24:25.978Z,96.26
2019-01-16T01:24:52.077Z,96.17
2019-01-16T01:25:18.184Z,96.08
2019-01-16T01:25:44.291Z,96.26
2019-01-16T01:26:10.399Z,95.98
2019-01-16T01:26:36.507Z,96.08
2019-01-16T01:27:02.620Z,96.08
2019-01-16T01:27:28.745Z,95.79
2019-01-16T01:27:54.849Z,96.08
2019-01-16T01:28:20.951Z,96.26
2019-01-16T01:28:47.078Z,95.98
2019-01-16T01:29:13.185Z,96.55
2019-01-16T01:29:39.288Z,96.08
2019-01-16T01:30:05.399Z,96.08
2019-01-16T01:30:31.509Z,96.36
2019-01-16T01:30:57.642Z,96.08
2019-01-16T01:31:23.753Z,96.36
2019-01-16T01:31:49.857Z,96.26
2019-01-16T01:32:15.958Z,96.46
2019-01-16T01:32:42.069Z,96.46
2019-01-16T01:33:08.163Z,96.17
2019-01-16T01:33:34.271Z,95.98
2019-01-16T01:34:00.378Z,96.08
2019-01-16T01:34:26.507Z,96.17
2019-01-16T01:34:52.617Z,96.26
2019-01-16T01:35:18.747Z,95.98
2019-01-16T01:35:44.851Z,96.08
2019-01-16T01:36:10.956Z,96.26
2019-01-16T01:36:37.093Z,96.17
2019-01-16T01:37:03.197Z,96.26
2019-01-16T01:37:29.312Z,96.08
2019-01-16T01:37:55.417Z,95.89
2019-01-16T01:38:21.520Z,96.08
2019-01-16T01:38:47.626Z,96.17
2019-01-16T01:39:13.727Z,96.36
2019-01-16T01:39:39.843Z,96.36
2019-01-16T01:40:05.954Z,96.74
2019-01-16T01:40:32.056Z,96.08
2019-01-16T01:40:58.155Z,95.89
2019-01-16T01:41:24.262Z,96.17
2019-01-16T01:41:50.370Z,96.08
2019-01-16T01:42:16.474Z,96.08
2019-01-16T01:42:42.583Z,96.17
2019-01-16T01:43:08.692Z,96.08
2019-01-16T01:43:34.805Z,95.98
2019-01-16T01:44:00.911Z,95.98
2019-01-16T01:44:27.018Z,96.08
2019-01-16T01:44:53.119Z,96.36
2019-01-16T01:45:19.222Z,96.36
2019-01-16T01:45:45.325Z,96.08
2019-01-16T01:46:11.436Z,96.17
2019-01-16T01:46:37.535Z,96.46
2019-01-16T01:47:03.690Z,96.08
2019-01-16T01:47:29.860Z,96.08
2019-01-16T01:47:55.938Z,96.08
2019-01-16T01:48:22.042Z,96.17
2019-01-16T01:48:49.157Z,96.08
2019-01-16T01:49:15.265Z,95.98
2019-01-16T01:49:41.372Z,95.98
2019-01-16T01:50:07.482Z,96.08
2019-01-16T01:50:33.580Z,96.08
2019-01-16T01:50:59.685Z,95.89
2019-01-16T01:51:26.810Z,96.55
2019-01-16T01:51:52.934Z,96.46
2019-01-16T01:52:19.013Z,96.46
2019-01-16T01:52:45.122Z,96.08
2019-01-16T01:53:11.229Z,95.98
2019-01-16T01:53:37.399Z,96.55
2019-01-16T01:54:03.499Z,96.94
2019-01-16T01:54:29.607Z,96.74
2019-01-16T01:54:55.708Z,96.65
2019-01-16T01:55:21.815Z,96.55
2019-01-16T01:55:47.926Z,96.65
2019-01-16T01:56:14.028Z,96.08
2019-01-16T01:56:40.138Z,96.84
2019-01-16T01:57:06.263Z,96.55
2019-01-16T01:57:32.372Z,96.65
2019-01-16T01:57:58.478Z,96.26
2019-01-16T01:58:24.589Z,95.98
2019-01-16T01:58:50.725Z,95.98
2019-01-16T01:59:16.889Z,95.79
2019-01-16T01:59:42.995Z,96.26
2019-01-16T02:00:09.108Z,96.26
2019-01-16T02:00:35.214Z,95.98
2019-01-16T02:01:01.314Z,96.74
2019-01-16T02:01:27.421Z,96.46
2019-01-16T02:01:53.548Z,96.84
2019-01-16T02:02:19.662Z,96.84
2019-01-16T02:02:45.773Z,97.22
2019-01-16T02:03:11.876Z,97.03
2019-01-16T02:03:38.017Z,96.84
2019-01-16T02:04:04.118Z,96.84
2019-01-16T02:04:30.223Z,96.94
2019-01-16T02:04:56.328Z,97.03
2019-01-16T02:05:22.433Z,96.65
2019-01-16T02:05:48.539Z,97.31
2019-01-16T02:06:14.651Z,97.41
2019-01-16T02:06:40.811Z,97.31
2019-01-16T02:07:06.923Z,97.41
2019-01-16T02:07:33.025Z,97.13
2019-01-16T02:07:59.985Z,97.41
2019-01-16T02:08:26.094Z,97.13
2019-01-16T02:08:52.210Z,97.22
2019-01-16T02:09:18.307Z,97.6
2019-01-16T02:09:44.418Z,97.31
2019-01-16T02:10:10.554Z,97.6
2019-01-16T02:10:36.659Z,97.6
2019-01-16T02:11:02.761Z,97.13
2019-01-16T02:11:28.873Z,97.88
2019-01-16T02:11:54.983Z,97.88
2019-01-16T02:12:21.114Z,97.98
2019-01-16T02:12:47.216Z,97.69
2019-01-16T02:13:13.319Z,98.27
2019-01-16T02:13:39.455Z,98.74
2019-01-16T02:14:05.571Z,98.55
2019-01-16T02:14:31.702Z,98.74
2019-01-16T02:14:57.808Z,98.74
2019-01-16T02:15:23.912Z,99.69
2019-01-16T02:15:50.021Z,99.6
2019-01-16T02:16:16.151Z,99.41
2019-01-16T02:16:42.299Z,99.69
2019-01-16T02:17:08.401Z,99.69
2019-01-16T02:17:34.540Z,99.98
2019-01-16T02:18:00.643Z,99.6
2019-01-16T02:18:26.775Z,99.99
2019-01-16T02:18:53.867Z,99.99
2019-01-16T02:19:19.969Z,99.99
2019-01-16T02:19:46.075Z,99.99
2019-01-16T02:20:12.188Z,99.99
2019-01-16T02:20:38.293Z,99.99
2019-01-16T02:21:04.398Z,99.99
2019-01-16T02:21:31.499Z,99.99
2019-01-16T02:21:57.597Z,99.99
2019-01-16T02:22:23.707Z,99.99
2019-01-16T02:22:49.841Z,99.99
2019-01-16T02:23:15.944Z,99.99
2019-01-16T02:23:42.095Z,99.99
2019-01-16T02:24:08.222Z,99.99
2019-01-16T02:24:34.335Z,99.99
2019-01-16T02:25:00.435Z,99.99
2019-01-16T02:25:26.544Z,99.99
2019-01-16T02:25:52.655Z,99.99
2019-01-16T02:26:18.762Z,99.99
2019-01-16T02:26:44.858Z,99.99
2019-01-16T02:27:10.963Z,99.99
2019-01-16T02:27:37.073Z,99.99
2019-01-16T02:28:03.219Z,99.99
2019-01-16T02:28:29.314Z,99.99
2019-01-16T02:28:55.419Z,99.99
2019-01-16T02:29:21.530Z,99.99
2019-01-16T02:29:47.637Z,99.99
2019-01-16T02:30:13.765Z,99.99
2019-01-16T02:30:39.928Z,99.99
2019-01-16T02:31:06.065Z,99.99
2019-01-16T02:31:32.205Z,99.99
2019-01-16T02:31:58.307Z,99.99
2019-01-16T02:32:24.438Z,99.99
2019-01-16T02:32:50.571Z,99.99
2019-01-16T02:33:16.682Z,99.99
2019-01-16T02:33:42.854Z,99.99
2019-01-16T02:34:08.958Z,99.99
2019-01-16T02:34:35.090Z,99.99
2019-01-16T02:35:01.191Z,99.99
2019-01-16T02:35:27.300Z,99.99
2019-01-16T02:35:53.400Z,99.99
2019-01-16T02:36:19.508Z,99.99
2019-01-16T02:36:45.651Z,99.99
2019-01-16T02:37:11.779Z,99.99
2019-01-16T02:37:37.893Z,99.99
2019-01-16T02:38:04.025Z,99.99
2019-01-16T02:38:30.137Z,99.99
2019-01-16T02:38:56.271Z,99.99
2019-01-16T02:39:22.373Z,99.99
2019-01-16T02:39:48.478Z,99.99
2019-01-16T02:40:14.613Z,99.99
2019-01-16T02:40:40.719Z,99.99
2019-01-16T02:41:06.832Z,99.99
2019-01-16T02:41:32.961Z,99.99
2019-01-16T02:41:59.069Z,99.99
2019-01-16T02:42:25.172Z,99.99
2019-01-16T02:42:51.277Z,99.99
2019-01-16T02:43:17.388Z,99.99
2019-01-16T02:43:43.520Z,99.99
2019-01-16T02:44:09.653Z,99.99
2019-01-16T02:44:35.757Z,99.99
2019-01-16T02:45:01.973Z,99.99
2019-01-16T02:45:28.066Z,99.99
2019-01-16T02:45:54.173Z,99.99
2019-01-16T02:46:20.315Z,99.99
2019-01-16T02:46:46.422Z,99.99
2019-01-16T02:47:12.531Z,99.99
2019-01-16T02:47:38.626Z,99.99
2019-01-16T02:48:04.729Z,99.99
2019-01-16T02:48:30.892Z,99.99
2019-01-16T02:48:57.992Z,99.99
2019-01-16T02:49:24.098Z,99.99
2019-01-16T02:49:50.228Z,99.99
2019-01-16T02:50:16.342Z,99.99
2019-01-16T02:50:42.448Z,99.99
2019-01-16T02:51:08.561Z,99.99
2019-01-16T02:51:34.663Z,99.99
2019-01-16T02:52:00.803Z,99.99
2019-01-16T02:52:26.909Z,99.99
2019-01-16T02:52:53.018Z,99.99
2019-01-16T02:53:19.120Z,99.99
2019-01-16T02:53:45.225Z,99.99
2019-01-16T02:54:11.331Z,99.99
2019-01-16T02:54:37.490Z,99.99
2019-01-16T02:55:03.636Z,99.99
2019-01-16T02:55:29.742Z,99.99
2019-01-16T02:55:57.514Z,99.99
2019-01-16T02:56:22.949Z,99.99
2019-01-16T02:56:49.058Z,99.99
2019-01-16T02:57:15.154Z,99.99
2019-01-16T02:57:41.258Z,99.99
2019-01-16T02:58:07.368Z,99.99
2019-01-16T02:58:33.482Z,99.99
2019-01-16T02:58:59.611Z,99.99
2019-01-16T02:59:25.777Z,99.99
2019-01-16T02:59:51.858Z,99.99
2019-01-16T03:00:17.956Z,99.99
2019-01-16T03:00:44.061Z,99.99
2019-01-16T03:01:10.169Z,99.88
2019-01-16T03:01:36.275Z,99.99
2019-01-16T03:02:02.410Z,99.98
2019-01-16T03:02:28.514Z,99.98
2019-01-16T03:02:54.624Z,99.99
2019-01-16T03:03:20.755Z,99.99
2019-01-16T03:03:46.853Z,99.99
2019-01-16T03:04:12.961Z,99.99
2019-01-16T03:04:39.068Z,99.69
2019-01-16T03:05:05.178Z,99.99
2019-01-16T03:05:31.289Z,99.98
2019-01-16T03:05:57.418Z,99.99
2019-01-16T03:06:23.548Z,99.99
2019-01-16T03:06:49.659Z,99.88
2019-01-16T03:07:15.763Z,99.99
2019-01-16T03:07:41.867Z,99.99
2019-01-16T03:08:07.968Z,99.99
2019-01-16T03:08:34.114Z,99.99
2019-01-16T03:09:00.222Z,99.99
2019-01-16T03:09:26.363Z,99.99
2019-01-16T03:09:52.474Z,99.99
2019-01-16T03:10:18.582Z,99.99
2019-01-16T03:10:44.689Z,99.99
2019-01-16T03:11:10.793Z,99.99
2019-01-16T03:11:36.895Z,99.99
2019-01-16T03:12:03.032Z,99.99
2019-01-16T03:12:29.140Z,99.99
2019-01-16T03:12:55.276Z,99.99
2019-01-16T03:13:21.405Z,99.99
2019-01-16T03:13:47.516Z,99.41
2019-01-16T03:14:13.649Z,99.69
2019-01-16T03:14:39.818Z,99.79
2019-01-16T03:15:05.883Z,99.99
2019-01-16T03:15:31.990Z,99.99
2019-01-16T03:15:58.093Z,99.99
2019-01-16T03:16:24.259Z,99.88
2019-01-16T03:16:50.366Z,99.98
2019-01-16T03:17:16.472Z,99.99
2019-01-16T03:17:42.580Z,99.99
2019-01-16T03:18:08.712Z,99.98
2019-01-16T03:18:34.809Z,99.99
2019-01-16T03:19:04.622Z,99.99
2019-01-16T03:19:28.050Z,99.98
2019-01-16T03:19:54.178Z,99.99
2019-01-16T03:20:20.287Z,99.98
2019-01-16T03:20:46.456Z,99.99
2019-01-16T03:21:12.565Z,99.99
2019-01-16T03:21:38.664Z,99.99
2019-01-16T03:22:04.770Z,99.99
2019-01-16T03:22:30.876Z,99.99
2019-01-16T03:22:57.017Z,99.99
2019-01-16T03:23:23.158Z,99.99
2019-01-16T03:23:49.288Z,99.88
2019-01-16T03:24:15.397Z,99.99
2019-01-16T03:24:41.491Z,99.98
2019-01-16T03:25:07.601Z,99.69
2019-01-16T03:25:33.707Z,99.99
2019-01-16T03:25:59.817Z,99.99
2019-01-16T03:26:25.949Z,99.69
2019-01-16T03:26:52.085Z,99.12
2019-01-16T03:27:18.194Z,99.5
2019-01-16T03:27:44.296Z,99.5
2019-01-16T03:28:10.402Z,99.69
2019-01-16T03:28:36.587Z,99.5
2019-01-16T03:29:02.630Z,99.6
2019-01-16T03:29:28.735Z,99.5
2019-01-16T03:29:54.848Z,99.79
2019-01-16T03:30:20.988Z,99.31
2019-01-16T03:30:47.123Z,99.5
2019-01-16T03:31:13.258Z,98.93
2019-01-16T03:31:39.416Z,99.22
2019-01-16T03:32:05.590Z,98.65
2019-01-16T03:32:31.714Z,98.93
2019-01-16T03:32:57.878Z,99.02
2019-01-16T03:33:23.979Z,98.93
2019-01-16T03:33:50.100Z,98.93
2019-01-16T03:34:16.257Z,98.93
2019-01-16T03:34:42.371Z,98.93
2019-01-16T03:35:08.528Z,98.93
2019-01-16T03:35:34.615Z,99.02
2019-01-16T03:36:00.722Z,99.12
2019-01-16T03:36:26.830Z,99.02
2019-01-16T03:36:52.964Z,98.83
2019-01-16T03:37:19.116Z,98.55
2019-01-16T03:37:45.217Z,98.55
2019-01-16T03:38:11.326Z,98.83
2019-01-16T03:38:37.432Z,98.46
2019-01-16T03:39:03.537Z,98.46
2019-01-16T03:39:29.677Z,98.55
2019-01-16T03:39:55.812Z,98.55
2019-01-16T03:40:21.962Z,98.74
2019-01-16T03:40:48.059Z,98.55
2019-01-16T03:41:14.170Z,98.46
2019-01-16T03:41:40.280Z,98.74
2019-01-16T03:42:06.387Z,98.27
2019-01-16T03:42:32.546Z,98.17
2019-01-16T03:42:58.650Z,98.27
2019-01-16T03:43:24.778Z,98.46
2019-01-16T03:43:50.883Z,98.46
2019-01-16T03:44:16.991Z,98.46
2019-01-16T03:44:43.154Z,98.65
2019-01-16T03:45:09.266Z,98.65
2019-01-16T03:45:35.365Z,98.36
2019-01-16T03:46:01.477Z,98.55
2019-01-16T03:46:27.589Z,98.46
2019-01-16T03:46:53.691Z,98.83
2019-01-16T03:47:19.789Z,98.17
2019-01-16T03:47:45.906Z,98.55
2019-01-16T03:48:12.034Z,98.93
2019-01-16T03:48:38.139Z,98.46
2019-01-16T03:49:12.846Z,98.46
2019-01-16T03:49:32.361Z,98.65
2019-01-16T03:49:58.464Z,98.46
2019-01-16T03:50:24.575Z,98.36
2019-01-16T03:50:50.707Z,98.17
2019-01-16T03:51:16.845Z,98.46
2019-01-16T03:51:42.944Z,98.46
2019-01-16T03:52:09.089Z,98.46
2019-01-16T03:52:35.200Z,98.27
2019-01-16T03:53:01.301Z,98.46
2019-01-16T03:53:27.408Z,98.36
2019-01-16T03:53:53.509Z,98.17
2019-01-16T03:54:19.625Z,98.36
2019-01-16T03:54:45.728Z,98.08
2019-01-16T03:55:11.840Z,97.88
2019-01-16T03:55:37.981Z,98.36
2019-01-16T03:56:04.111Z,98.46
2019-01-16T03:56:30.257Z,98.65
2019-01-16T03:56:56.380Z,98.36
2019-01-16T03:57:22.516Z,98.65
2019-01-16T03:57:48.614Z,98.65
2019-01-16T03:58:14.727Z,98.55
2019-01-16T03:58:40.830Z,98.93
2019-01-16T03:59:06.990Z,98.46
2019-01-16T03:59:33.144Z,98.46
2019-01-16T03:59:59.290Z,98.55
2019-01-16T04:00:25.390Z,98.74
2019-01-16T04:00:51.555Z,98.55
2019-01-16T04:01:17.670Z,98.93
2019-01-16T04:01:43.773Z,98.46
2019-01-16T04:02:09.886Z,98.74
2019-01-16T04:02:35.981Z,98.93
2019-01-16T04:03:02.087Z,99.02
2019-01-16T04:03:28.225Z,99.12
2019-01-16T04:03:54.375Z,98.83
2019-01-16T04:04:20.481Z,98.55
2019-01-16T04:04:46.617Z,99.02
2019-01-16T04:05:12.719Z,98.93
2019-01-16T04:05:38.854Z,98.93
2019-01-16T04:06:04.963Z,98.36
2019-01-16T04:06:31.069Z,98.36
2019-01-16T04:06:57.193Z,98.93
2019-01-16T04:07:23.306Z,99.12
2019-01-16T04:07:49.433Z,99.41
2019-01-16T04:08:15.577Z,99.5
2019-01-16T04:08:41.711Z,98.83
2019-01-16T04:09:07.877Z,98.93
2019-01-16T04:09:33.985Z,98.74
2019-01-16T04:10:00.175Z,98.65
2019-01-16T04:10:26.260Z,98.74
2019-01-16T04:10:52.396Z,98.93
2019-01-16T04:11:18.507Z,98.65
2019-01-16T04:11:44.604Z,98.65
2019-01-16T04:12:10.739Z,98.74
2019-01-16T04:12:36.839Z,98.83
2019-01-16T04:13:02.977Z,98.93
2019-01-16T04:13:29.076Z,98.74
2019-01-16T04:13:55.185Z,98.93
2019-01-16T04:14:21.287Z,98.93
2019-01-16T04:14:47.396Z,98.74
2019-01-16T04:15:13.502Z,98.93
2019-01-16T04:15:39.608Z,98.55
2019-01-16T04:16:05.714Z,98.65
2019-01-16T04:16:31.818Z,98.46
2019-01-16T04:16:57.930Z,98.93
2019-01-16T04:17:25.004Z,98.65
2019-01-16T04:17:51.181Z,98.46
2019-01-16T04:18:17.344Z,98.36
2019-01-16T04:18:43.455Z,98.27
2019-01-16T04:19:09.618Z,98.36
2019-01-16T04:19:37.617Z,98.46
2019-01-16T04:20:03.751Z,98.83
2019-01-16T04:20:29.857Z,98.65
2019-01-16T04:20:55.955Z,98.46
2019-01-16T04:21:22.067Z,98.65
2019-01-16T04:21:48.171Z,98.74
2019-01-16T04:22:14.301Z,98.55
2019-01-16T04:22:40.412Z,98.55
2019-01-16T04:23:06.545Z,98.74
2019-01-16T04:23:32.712Z,99.12
2019-01-16T04:23:58.855Z,98.93
2019-01-16T04:24:24.959Z,99.02
2019-01-16T04:24:51.126Z,99.12
2019-01-16T04:25:17.236Z,99.02
2019-01-16T04:25:43.342Z,99.02
2019-01-16T04:26:09.450Z,98.55
2019-01-16T04:26:35.563Z,98.55
2019-01-16T04:27:02.660Z,98.55
2019-01-16T04:27:28.766Z,98.55
2019-01-16T04:27:54.879Z,98.74
2019-01-16T04:28:20.978Z,98.36
2019-01-16T04:28:47.187Z,98.93
2019-01-16T04:29:13.317Z,98.65
2019-01-16T04:29:39.422Z,98.55
2019-01-16T04:30:05.551Z,98.74
2019-01-16T04:30:31.686Z,98.36
2019-01-16T04:30:57.789Z,98.46
2019-01-16T04:31:23.935Z,98.55
2019-01-16T04:31:50.045Z,98.55
2019-01-16T04:32:16.142Z,98.83
2019-01-16T04:32:42.256Z,98.46
2019-01-16T04:33:08.390Z,98.55
2019-01-16T04:33:34.504Z,98.55
2019-01-16T04:34:00.606Z,98.83
2019-01-16T04:34:26.704Z,98.74
2019-01-16T04:34:52.879Z,98.74
2019-01-16T04:35:18.987Z,98.74
2019-01-16T04:35:45.084Z,98.46
2019-01-16T04:36:11.219Z,98.74
2019-01-16T04:36:37.359Z,98.83
2019-01-16T04:37:03.458Z,98.74
2019-01-16T04:37:29.568Z,98.27
2019-01-16T04:37:55.671Z,98.36
2019-01-16T04:38:21.831Z,98.27
2019-01-16T04:38:47.941Z,98.27
2019-01-16T04:39:14.079Z,98.46
2019-01-16T04:39:40.188Z,97.88
2019-01-16T04:40:06.291Z,98.27
2019-01-16T04:40:32.399Z,98.46
2019-01-16T04:40:58.505Z,97.88
2019-01-16T04:41:24.639Z,98.36
2019-01-16T04:41:50.740Z,97.98
2019-01-16T04:42:16.848Z,97.69
2019-01-16T04:42:42.981Z,97.88
2019-01-16T04:43:09.082Z,97.88
2019-01-16T04:43:35.199Z,98.27
2019-01-16T04:44:01.304Z,98.55
2019-01-16T04:44:27.438Z,98.74
2019-01-16T04:44:53.554Z,98.74
2019-01-16T04:45:19.652Z,98.46
2019-01-16T04:45:45.785Z,98.46
2019-01-16T04:46:11.917Z,98.46
2019-01-16T04:46:38.084Z,98.83
2019-01-16T04:47:04.196Z,98.55
2019-01-16T04:47:30.296Z,98.55
2019-01-16T04:47:56.402Z,98.65
2019-01-16T04:48:22.542Z,98.46
2019-01-16T04:48:48.703Z,98.83
2019-01-16T04:49:14.812Z,98.74
2019-01-16T04:49:41.901Z,98.74
2019-01-16T04:50:08.011Z,98.65
2019-01-16T04:50:34.115Z,98.17
2019-01-16T04:51:00.218Z,98.08
2019-01-16T04:51:26.351Z,98.08
2019-01-16T04:51:52.458Z,98.08
2019-01-16T04:52:18.564Z,98.08
2019-01-16T04:52:44.671Z,98.46
2019-01-16T04:53:10.780Z,97.88
2019-01-16T04:53:36.894Z,97.6
2019-01-16T04:54:03.005Z,97.88
2019-01-16T04:54:29.172Z,97.88
2019-01-16T04:54:55.271Z,97.88
2019-01-16T04:55:21.378Z,97.69
2019-01-16T04:55:47.483Z,98.46
2019-01-16T04:56:13.590Z,98.08
2019-01-16T04:56:39.725Z,98.17
2019-01-16T04:57:05.830Z,98.36
2019-01-16T04:57:31.938Z,97.88
2019-01-16T04:57:58.044Z,98.46
2019-01-16T04:58:24.148Z,98.08
2019-01-16T04:58:50.276Z,98.08
2019-01-16T04:59:16.416Z,97.88
2019-01-16T04:59:42.549Z,98.55
2019-01-16T05:00:08.650Z,97.88
2019-01-16T05:00:34.813Z,98.36
2019-01-16T05:01:00.913Z,98.36
2019-01-16T05:01:27.028Z,97.98
2019-01-16T05:01:53.162Z,97.88
2019-01-16T05:02:19.267Z,98.17
2019-01-16T05:02:45.374Z,97.79
2019-01-16T05:03:11.476Z,97.98
2019-01-16T05:03:37.585Z,97.98
2019-01-16T05:04:03.691Z,97.88
2019-01-16T05:04:29.805Z,98.17
2019-01-16T05:04:55.925Z,98.17
2019-01-16T05:05:22.035Z,97.79
2019-01-16T05:05:48.146Z,97.79
2019-01-16T05:06:14.255Z,98.08
2019-01-16T05:06:40.393Z,97.79
2019-01-16T05:07:06.526Z,98.08
2019-01-16T05:07:32.627Z,97.88
2019-01-16T05:07:58.736Z,98.46
2019-01-16T05:08:24.838Z,98.65
2019-01-16T05:08:50.947Z,98.46
2019-01-16T05:09:17.055Z,98.93
2019-01-16T05:09:43.162Z,98.55
2019-01-16T05:10:09.277Z,98.74
2019-01-16T05:10:35.413Z,98.55
2019-01-16T05:11:01.554Z,99.12
2019-01-16T05:11:27.650Z,98.46
2019-01-16T05:11:53.791Z,99.6
2019-01-16T05:12:19.900Z,99.79
2019-01-16T05:12:46.035Z,99.6
2019-01-16T05:13:12.168Z,99.22
2019-01-16T05:13:38.274Z,99.5
2019-01-16T05:14:04.379Z,99.31
2019-01-16T05:14:30.528Z,99.22
2019-01-16T05:14:56.651Z,99.41
2019-01-16T05:15:22.774Z,99.41
2019-01-16T05:15:48.881Z,99.12
2019-01-16T05:16:14.983Z,99.31
2019-01-16T05:16:41.152Z,99.99
2019-01-16T05:17:07.254Z,99.79
2019-01-16T05:17:33.389Z,99.99
2019-01-16T05:17:59.497Z,99.99
2019-01-16T05:18:25.597Z,99.99
2019-01-16T05:18:52.115Z,99.99
2019-01-16T05:19:18.251Z,99.99
2019-01-16T05:19:45.365Z,99.99
2019-01-16T05:20:11.478Z,99.99
2019-01-16T05:20:37.590Z,99.99
2019-01-16T05:21:03.691Z,99.99
2019-01-16T05:21:29.826Z,99.99
2019-01-16T05:21:55.934Z,99.99
2019-01-16T05:22:22.091Z,99.99
2019-01-16T05:22:48.203Z,99.99
2019-01-16T05:23:14.332Z,99.99
2019-01-16T05:23:40.441Z,99.99
2019-01-16T05:24:06.553Z,99.99
2019-01-16T05:24:32.710Z,99.99
2019-01-16T05:24:58.822Z,99.99
2019-01-16T05:25:24.923Z,99.99
2019-01-16T05:25:51.052Z,99.99
2019-01-16T05:26:17.190Z,99.99
2019-01-16T05:26:43.513Z,99.99
2019-01-16T05:27:09.620Z,99.99
2019-01-16T05:27:35.778Z,99.99
2019-01-16T05:28:01.879Z,99.99
2019-01-16T05:28:28.000Z,99.99
2019-01-16T05:28:54.114Z,99.99
2019-01-16T05:29:20.213Z,99.99
2019-01-16T05:29:46.314Z,99.99
2019-01-16T05:30:12.479Z,99.99
2019-01-16T05:30:38.581Z,99.99
2019-01-16T05:31:04.689Z,99.99
2019-01-16T05:31:30.794Z,99.99
2019-01-16T05:31:56.932Z,99.99
2019-01-16T05:32:23.066Z,99.99
2019-01-16T05:32:49.170Z,99.99
2019-01-16T05:33:15.277Z,99.99
2019-01-16T05:33:41.383Z,99.99
2019-01-16T05:34:07.550Z,99.99
2019-01-16T05:34:33.684Z,99.99
2019-01-16T05:34:59.813Z,99.99
2019-01-16T05:35:25.939Z,99.99
2019-01-16T05:35:52.078Z,99.99
2019-01-16T05:36:18.215Z,99.99
2019-01-16T05:36:44.350Z,99.99
2019-01-16T05:37:10.454Z,99.99
2019-01-16T05:37:36.564Z,99.99